ベルリン/テーゲル の空港の天気 - METARとTAF

ベルリン・テーゲル国際空港 ( EDDT / TXL ) - ドイツ ベルリン
飛行場実況気象(Metar)
観測時間10/16 08:20 CEST (10/16 06:20 UTC)
風向・風速不定 1m/s
視程10km以上
天気現象
なし
気温10℃
湿度76%
気圧1018hPa
METAREDDT 160620Z VRB02KT CAVOK 10/06 Q1018 NOSIG
過去の天気等 Google飛行場航空写真 Wunderground天気予報

過去48時間のMETAR

飛行場予報(TAF)
発表時間: 10/16 07:00 CEST (10/16 05:00 UTC)
予報対象時間: 16日8時 CEST ~ 17日8時 CEST
風向・風速不定 2m/s
視程10km以上
なし
TAF EDDT 160500Z 1606/1706 VRB03KT CAVOK